ANZ902 NSFA-NTAA
Flight info
| Callsign | ANZ902 |
|---|---|
| Flight time | N/A |
| Altitude | 33000 |
| Route | PONAT1R PONAT B577 TUT G224 OPERU DCT IDUTA IDUTA3V |
| Aircraft | A21N/M-SDE2E3FGHIRWXY/LB1 |
Departure
| Time | N/A |
|---|---|
| Airport | Faleolo International Airport (NSFA) |
Arrival
| Time | 2026-04-27 21:39 |
|---|---|
| Airport | Fa'a'ā International Airport (NTAA) |
| Time | Latitude | Longitude | Altitude | Speed | Heading |
|---|---|---|---|---|---|
| 2026-04-27 21:07 | -17.22435 | -152.50209 | 33002 ft | 463 kts | 100° |
| 2026-04-27 21:08 | -17.23228 | -152.43565 | 32999 ft | 463 kts | 100° |
| 2026-04-27 21:08 | -17.24028 | -152.36880 | 32999 ft | 463 kts | 101° |
| 2026-04-27 21:09 | -17.24826 | -152.30195 | 32996 ft | 463 kts | 101° |
| 2026-04-27 21:09 | -17.25627 | -152.23512 | 32993 ft | 463 kts | 100° |
| 2026-04-27 21:10 | -17.26405 | -152.16824 | 32983 ft | 463 kts | 100° |
| 2026-04-27 21:10 | -17.27182 | -152.10141 | 32973 ft | 463 kts | 100° |
| 2026-04-27 21:11 | -17.27961 | -152.03448 | 32972 ft | 463 kts | 100° |
| 2026-04-27 21:11 | -17.28732 | -151.96757 | 32977 ft | 462 kts | 100° |
| 2026-04-27 21:12 | -17.29503 | -151.90096 | 32969 ft | 461 kts | 100° |
| 2026-04-27 21:12 | -17.30278 | -151.83433 | 32969 ft | 461 kts | 100° |
| 2026-04-27 21:13 | -17.31048 | -151.76770 | 32962 ft | 461 kts | 100° |
| 2026-04-27 21:13 | -17.31818 | -151.70108 | 32969 ft | 461 kts | 101° |
| 2026-04-27 21:14 | -17.33185 | -151.63607 | 32964 ft | 457 kts | 108° |
| 2026-04-27 21:14 | -17.34803 | -151.57171 | 32966 ft | 457 kts | 108° |
| 2026-04-27 21:15 | -17.36409 | -151.50742 | 32976 ft | 457 kts | 108° |
| 2026-04-27 21:15 | -17.37994 | -151.44329 | 32612 ft | 453 kts | 108° |
| 2026-04-27 21:15 | -17.38786 | -151.41124 | 32322 ft | 455 kts | 108° |
| 2026-04-27 21:16 | -17.39582 | -151.37916 | 32062 ft | 455 kts | 108° |
| 2026-04-27 21:16 | -17.40374 | -151.34713 | 31811 ft | 455 kts | 108° |
| 2026-04-27 21:16 | -17.41167 | -151.31501 | 31557 ft | 456 kts | 107° |
| 2026-04-27 21:16 | -17.41960 | -151.28291 | 31307 ft | 456 kts | 107° |
| 2026-04-27 21:17 | -17.42755 | -151.25078 | 31068 ft | 455 kts | 107° |
| 2026-04-27 21:17 | -17.43547 | -151.21879 | 30762 ft | 452 kts | 107° |
| 2026-04-27 21:17 | -17.44327 | -151.18707 | 30221 ft | 447 kts | 107° |
| 2026-04-27 21:17 | -17.45099 | -151.15562 | 29587 ft | 445 kts | 107° |
| 2026-04-27 21:18 | -17.45867 | -151.12436 | 28925 ft | 442 kts | 107° |
| 2026-04-27 21:18 | -17.46632 | -151.09327 | 28287 ft | 440 kts | 106° |
| 2026-04-27 21:18 | -17.47393 | -151.06236 | 27652 ft | 437 kts | 106° |
| 2026-04-27 21:18 | -17.48146 | -151.03164 | 26992 ft | 435 kts | 106° |
| 2026-04-27 21:19 | -17.48896 | -151.00106 | 26339 ft | 432 kts | 106° |
| 2026-04-27 21:19 | -17.49641 | -150.97067 | 25698 ft | 429 kts | 105° |
| 2026-04-27 21:19 | -17.50380 | -150.94054 | 25086 ft | 426 kts | 105° |
| 2026-04-27 21:20 | -17.51845 | -150.88079 | 23811 ft | 421 kts | 105° |
| 2026-04-27 21:20 | -17.52568 | -150.85118 | 23192 ft | 418 kts | 105° |
| 2026-04-27 21:20 | -17.53288 | -150.82178 | 22582 ft | 415 kts | 105° |
| 2026-04-27 21:20 | -17.54005 | -150.79256 | 21960 ft | 412 kts | 104° |
| 2026-04-27 21:21 | -17.54712 | -150.76356 | 21334 ft | 410 kts | 104° |
| 2026-04-27 21:21 | -17.55416 | -150.73468 | 20725 ft | 407 kts | 104° |
| 2026-04-27 21:21 | -17.56104 | -150.70643 | 20149 ft | 404 kts | 104° |
| 2026-04-27 21:21 | -17.56804 | -150.67770 | 19578 ft | 400 kts | 104° |
| 2026-04-27 21:22 | -17.57488 | -150.64960 | 19037 ft | 396 kts | 103° |
| 2026-04-27 21:22 | -17.58158 | -150.62209 | 18532 ft | 393 kts | 103° |
| 2026-04-27 21:22 | -17.58831 | -150.59443 | 18033 ft | 391 kts | 103° |
| 2026-04-27 21:22 | -17.59499 | -150.56695 | 17539 ft | 389 kts | 103° |
| 2026-04-27 21:23 | -17.60166 | -150.53949 | 17040 ft | 387 kts | 103° |
| 2026-04-27 21:23 | -17.60825 | -150.51236 | 16542 ft | 381 kts | 103° |
| 2026-04-27 21:23 | -17.61468 | -150.48567 | 16048 ft | 374 kts | 102° |
| 2026-04-27 21:23 | -17.61768 | -150.45900 | 15550 ft | 366 kts | 88° |
| 2026-04-27 21:24 | -17.61589 | -150.43262 | 15103 ft | 359 kts | 84° |
| 2026-04-27 21:24 | -17.61360 | -150.40684 | 14650 ft | 353 kts | 84° |
| 2026-04-27 21:24 | -17.61137 | -150.38143 | 14173 ft | 349 kts | 84° |
| 2026-04-27 21:24 | -17.60923 | -150.35606 | 13699 ft | 350 kts | 84° |
| 2026-04-27 21:25 | -17.60715 | -150.33069 | 13248 ft | 350 kts | 84° |
| 2026-04-27 21:25 | -17.60508 | -150.30526 | 12803 ft | 350 kts | 84° |
| 2026-04-27 21:25 | -17.60303 | -150.27989 | 12356 ft | 349 kts | 84° |
| 2026-04-27 21:25 | -17.60100 | -150.25444 | 11871 ft | 350 kts | 85° |
| 2026-04-27 21:26 | -17.59895 | -150.22906 | 11388 ft | 350 kts | 85° |
| 2026-04-27 21:26 | -17.59688 | -150.20362 | 10911 ft | 348 kts | 84° |
| 2026-04-27 21:26 | -17.59487 | -150.17874 | 10609 ft | 337 kts | 84° |
| 2026-04-27 21:26 | -17.59293 | -150.15476 | 10396 ft | 323 kts | 84° |
| 2026-04-27 21:27 | -17.59106 | -150.13185 | 10218 ft | 309 kts | 84° |
| 2026-04-27 21:27 | -17.58928 | -150.10993 | 9995 ft | 295 kts | 84° |
| 2026-04-27 21:27 | -17.58756 | -150.08868 | 9514 ft | 291 kts | 84° |
| 2026-04-27 21:27 | -17.58584 | -150.06766 | 8996 ft | 288 kts | 84° |
| 2026-04-27 21:28 | -17.58416 | -150.04696 | 8596 ft | 283 kts | 84° |
| 2026-04-27 21:28 | -17.58249 | -150.02650 | 8199 ft | 282 kts | 84° |
| 2026-04-27 21:28 | -17.58081 | -150.00600 | 7819 ft | 282 kts | 84° |
| 2026-04-27 21:28 | -17.57913 | -149.98556 | 7458 ft | 280 kts | 84° |
| 2026-04-27 21:29 | -17.57748 | -149.96530 | 7087 ft | 276 kts | 84° |
| 2026-04-27 21:29 | -17.57685 | -149.94561 | 6777 ft | 266 kts | 95° |
| 2026-04-27 21:29 | -17.58229 | -149.92755 | 6478 ft | 258 kts | 119° |
| 2026-04-27 21:29 | -17.59431 | -149.91395 | 6084 ft | 255 kts | 144° |
| 2026-04-27 21:30 | -17.61033 | -149.90682 | 5765 ft | 248 kts | 164° |
| 2026-04-27 21:30 | -17.62686 | -149.90296 | 5475 ft | 240 kts | 164° |
| 2026-04-27 21:30 | -17.64281 | -149.89851 | 5201 ft | 236 kts | 161° |
| 2026-04-27 21:30 | -17.65839 | -149.89302 | 5036 ft | 235 kts | 157° |
| 2026-04-27 21:31 | -17.67340 | -149.88653 | 4951 ft | 230 kts | 153° |
| 2026-04-27 21:31 | -17.68774 | -149.87922 | 5013 ft | 229 kts | 149° |
| 2026-04-27 21:31 | -17.70158 | -149.87110 | 4968 ft | 228 kts | 146° |
| 2026-04-27 21:31 | -17.71471 | -149.86206 | 4820 ft | 222 kts | 135° |
| 2026-04-27 21:32 | -17.72265 | -149.84969 | 4653 ft | 197 kts | 102° |
| 2026-04-27 21:32 | -17.72204 | -149.83618 | 4532 ft | 176 kts | 68° |
| 2026-04-27 21:32 | -17.71582 | -149.82629 | 4438 ft | 156 kts | 49° |
| 2026-04-27 21:32 | -17.70911 | -149.81784 | 4084 ft | 148 kts | 51° |
| 2026-04-27 21:33 | -17.70243 | -149.80964 | 3806 ft | 149 kts | 47° |
| 2026-04-27 21:33 | -17.69552 | -149.80156 | 3656 ft | 149 kts | 48° |
| 2026-04-27 21:33 | -17.68883 | -149.79333 | 3566 ft | 148 kts | 50° |
| 2026-04-27 21:33 | -17.68236 | -149.78496 | 3531 ft | 148 kts | 51° |
| 2026-04-27 21:34 | -17.67599 | -149.77649 | 3391 ft | 148 kts | 52° |
| 2026-04-27 21:34 | -17.66971 | -149.76798 | 3169 ft | 147 kts | 52° |
| 2026-04-27 21:34 | -17.66352 | -149.75950 | 2980 ft | 146 kts | 52° |
| 2026-04-27 21:34 | -17.65735 | -149.75102 | 2966 ft | 146 kts | 52° |
| 2026-04-27 21:35 | -17.65120 | -149.74251 | 2896 ft | 147 kts | 52° |
| 2026-04-27 21:35 | -17.64508 | -149.73403 | 2746 ft | 145 kts | 52° |
| 2026-04-27 21:35 | -17.63897 | -149.72558 | 2559 ft | 145 kts | 52° |
| 2026-04-27 21:35 | -17.63292 | -149.71722 | 2364 ft | 143 kts | 52° |
| 2026-04-27 21:36 | -17.62577 | -149.71007 | 2167 ft | 142 kts | 37° |
| 2026-04-27 21:36 | -17.61857 | -149.70319 | 1978 ft | 143 kts | 59° |
| 2026-04-27 21:36 | -17.61442 | -149.69369 | 1815 ft | 143 kts | 61° |
| 2026-04-27 21:36 | -17.60931 | -149.68484 | 1632 ft | 141 kts | 53° |
| 2026-04-27 21:37 | -17.60356 | -149.67657 | 1440 ft | 140 kts | 51° |
| 2026-04-27 21:37 | -17.59772 | -149.66848 | 1259 ft | 139 kts | 50° |
| 2026-04-27 21:37 | -17.59189 | -149.66041 | 1069 ft | 139 kts | 50° |
| 2026-04-27 21:37 | -17.58581 | -149.65251 | 874 ft | 139 kts | 47° |
| 2026-04-27 21:38 | -17.57971 | -149.64457 | 696 ft | 140 kts | 49° |
| 2026-04-27 21:38 | -17.57390 | -149.63662 | 485 ft | 139 kts | 52° |
| 2026-04-27 21:38 | -17.56845 | -149.62802 | 296 ft | 140 kts | 51° |
| 2026-04-27 21:38 | -17.56259 | -149.62005 | 133 ft | 140 kts | 51° |
| 2026-04-27 21:39 | -17.55691 | -149.61174 | 28 ft | 136 kts | 52° |
| 2026-04-27 21:39 | -17.55212 | -149.60494 | 25 ft | 91 kts | 51° |
| 2026-04-27 21:39 | -17.54940 | -149.60097 | 26 ft | 46 kts | 54° |
| 2026-04-27 21:39 | -17.54756 | -149.59827 | 26 ft | 36 kts | 56° |
| 2026-04-27 21:40 | -17.54641 | -149.59649 | 25 ft | 29 kts | 54° |
| 2026-04-27 21:40 | -17.54545 | -149.59513 | 25 ft | 18 kts | 53° |
| 2026-04-27 21:40 | -17.54516 | -149.59440 | 25 ft | 9 kts | 83° |
| 2026-04-27 21:40 | -17.54500 | -149.59445 | 24 ft | 6 kts | 259° |
| 2026-04-27 21:41 | -17.54523 | -149.59491 | 26 ft | 9 kts | 234° |
| 2026-04-27 21:41 | -17.54565 | -149.59554 | 24 ft | 12 kts | 236° |
| 2026-04-27 21:41 | -17.54618 | -149.59633 | 27 ft | 15 kts | 233° |
| 2026-04-27 21:41 | -17.54687 | -149.59734 | 28 ft | 20 kts | 236° |
| 2026-04-27 21:42 | -17.54744 | -149.59819 | 27 ft | 22 kts | 235° |
| 2026-04-27 21:42 | -17.54879 | -149.60016 | 27 ft | 28 kts | 234° |
| 2026-04-27 21:42 | -17.55001 | -149.60185 | 24 ft | 30 kts | 234° |
| 2026-04-27 21:42 | -17.55085 | -149.60307 | 26 ft | 31 kts | 234° |
| 2026-04-27 21:43 | -17.55214 | -149.60496 | 26 ft | 33 kts | 234° |
| 2026-04-27 21:43 | -17.55350 | -149.60695 | 27 ft | 34 kts | 234° |
| 2026-04-27 21:43 | -17.55491 | -149.60899 | 28 ft | 36 kts | 234° |
| 2026-04-27 21:43 | -17.55616 | -149.61075 | 27 ft | 22 kts | 233° |
| 2026-04-27 21:44 | -17.55670 | -149.61129 | 28 ft | 9 kts | 185° |
| 2026-04-27 21:44 | -17.55734 | -149.61097 | 26 ft | 12 kts | 146° |
| 2026-04-27 21:44 | -17.55804 | -149.61045 | 27 ft | 10 kts | 144° |
| 2026-04-27 21:44 | -17.55847 | -149.61012 | 27 ft | 5 kts | 143° |
| 2026-04-27 21:45 | -17.55848 | -149.61011 | 27 ft | 1 kts | 143° |
| 2026-04-27 21:45 | -17.55849 | -149.61010 | 27 ft | 0 kts | 144° |